Terminal Aerodrome Forecast
Issued by NWS Tuscon, AZ

Home | Current Version | Previous Version | Text Only | Print | Product List | Glossary On
Versions: 1 2 3 4 5 6 7 8 9 10 11 12 13 14 15 16 17 18 19
000
FTUS45 KTWC 220200 AAA
TAFDUG
TAF AMD
KDUG 220225Z 2202/2224 08007KT P6SM VCTS SCT050CB BKN100
      TEMPO 2202/2204 5SM TSRA
     FM220400 VRB06KT P6SM SCT070 BKN140
     FM222000 30007KT P6SM VCSH SCT080=

USA.gov is the U.S. government's official web portal to all federal, state and local government web resources and services.